sensor_id;sensor_type;location;lat;lon;timestamp;P1;durP1;ratioP1;P2;durP2;ratioP2
51636;SDS011;37713;53.254;6.460;2023-05-28T00:00:33;21.52;;;5.78;;
51636;SDS011;37713;53.254;6.460;2023-05-28T00:03:00;18.35;;;5.40;;
51636;SDS011;37713;53.254;6.460;2023-05-28T00:05:25;16.30;;;5.55;;
51636;SDS011;37713;53.254;6.460;2023-05-28T00:07:51;16.10;;;5.78;;
51636;SDS011;37713;53.254;6.460;2023-05-28T00:10:17;17.58;;;5.93;;
51636;SDS011;37713;53.254;6.460;2023-05-28T00:12:43;16.73;;;5.75;;
51636;SDS011;37713;53.254;6.460;2023-05-28T00:15:09;16.67;;;5.95;;
51636;SDS011;37713;53.254;6.460;2023-05-28T00:17:35;15.70;;;5.63;;
51636;SDS011;37713;53.254;6.460;2023-05-28T00:20:01;16.15;;;5.68;;
51636;SDS011;37713;53.254;6.460;2023-05-28T00:22:28;21.05;;;6.75;;
51636;SDS011;37713;53.254;6.460;2023-05-28T00:24:54;17.70;;;5.22;;
51636;SDS011;37713;53.254;6.460;2023-05-28T00:27:20;15.43;;;5.75;;
51636;SDS011;37713;53.254;6.460;2023-05-28T00:29:46;16.40;;;5.63;;
51636;SDS011;37713;53.254;6.460;2023-05-28T00:32:11;17.23;;;5.88;;
51636;SDS011;37713;53.254;6.460;2023-05-28T00:34:37;16.80;;;5.85;;
51636;SDS011;37713;53.254;6.460;2023-05-28T00:37:03;15.48;;;5.63;;
51636;SDS011;37713;53.254;6.460;2023-05-28T00:39:30;18.40;;;6.50;;
51636;SDS011;37713;53.254;6.460;2023-05-28T00:41:59;18.20;;;6.80;;
51636;SDS011;37713;53.254;6.460;2023-05-28T00:44:27;18.58;;;6.68;;
51636;SDS011;37713;53.254;6.460;2023-05-28T00:46:53;16.33;;;5.97;;
51636;SDS011;37713;53.254;6.460;2023-05-28T00:49:19;18.02;;;6.50;;
51636;SDS011;37713;53.254;6.460;2023-05-28T00:51:46;14.73;;;5.95;;
51636;SDS011;37713;53.254;6.460;2023-05-28T00:54:13;17.42;;;6.55;;
51636;SDS011;37713;53.254;6.460;2023-05-28T00:56:39;14.55;;;6.35;;
51636;SDS011;37713;53.254;6.460;2023-05-28T00:59:05;20.05;;;6.80;;
51636;SDS011;37713;53.254;6.460;2023-05-28T01:01:31;14.38;;;6.50;;
51636;SDS011;37713;53.254;6.460;2023-05-28T01:03:57;20.50;;;7.35;;
51636;SDS011;37713;53.254;6.460;2023-05-28T01:06:23;20.10;;;6.60;;
51636;SDS011;37713;53.254;6.460;2023-05-28T01:08:49;18.25;;;6.43;;
51636;SDS011;37713;53.254;6.460;2023-05-28T01:11:19;14.88;;;6.68;;
51636;SDS011;37713;53.254;6.460;2023-05-28T01:13:46;15.35;;;6.63;;
51636;SDS011;37713;53.254;6.460;2023-05-28T01:16:12;18.08;;;6.68;;
51636;SDS011;37713;53.254;6.460;2023-05-28T01:18:39;22.17;;;7.32;;
51636;SDS011;37713;53.254;6.460;2023-05-28T01:21:07;18.20;;;6.28;;
51636;SDS011;37713;53.254;6.460;2023-05-28T01:23:41;17.23;;;6.70;;
51636;SDS011;37713;53.254;6.460;2023-05-28T01:26:08;18.38;;;7.85;;
51636;SDS011;37713;53.254;6.460;2023-05-28T01:28:34;19.77;;;7.55;;
51636;SDS011;37713;53.254;6.460;2023-05-28T01:31:00;18.33;;;7.50;;
51636;SDS011;37713;53.254;6.460;2023-05-28T01:33:27;20.40;;;7.68;;
51636;SDS011;37713;53.254;6.460;2023-05-28T01:35:54;20.63;;;7.40;;
51636;SDS011;37713;53.254;6.460;2023-05-28T01:38:23;19.75;;;7.80;;
51636;SDS011;37713;53.254;6.460;2023-05-28T01:40:52;18.33;;;7.20;;
51636;SDS011;37713;53.254;6.460;2023-05-28T01:43:20;20.27;;;7.25;;
51636;SDS011;37713;53.254;6.460;2023-05-28T01:45:46;16.42;;;6.47;;
51636;SDS011;37713;53.254;6.460;2023-05-28T01:48:13;13.90;;;7.13;;
51636;SDS011;37713;53.254;6.460;2023-05-28T01:50:39;18.00;;;7.00;;
51636;SDS011;37713;53.254;6.460;2023-05-28T01:53:04;18.35;;;7.13;;
51636;SDS011;37713;53.254;6.460;2023-05-28T01:55:31;15.07;;;7.00;;
51636;SDS011;37713;53.254;6.460;2023-05-28T01:57:58;18.55;;;7.05;;
51636;SDS011;37713;53.254;6.460;2023-05-28T02:00:24;14.52;;;6.65;;
51636;SDS011;37713;53.254;6.460;2023-05-28T02:02:50;16.80;;;6.72;;
51636;SDS011;37713;53.254;6.460;2023-05-28T02:05:17;18.50;;;7.50;;
51636;SDS011;37713;53.254;6.460;2023-05-28T02:07:42;16.27;;;7.00;;
51636;SDS011;37713;53.254;6.460;2023-05-28T02:10:08;18.65;;;6.97;;
51636;SDS011;37713;53.254;6.460;2023-05-28T02:12:34;14.35;;;6.97;;
51636;SDS011;37713;53.254;6.460;2023-05-28T02:15:00;18.90;;;7.28;;
51636;SDS011;37713;53.254;6.460;2023-05-28T02:17:29;20.35;;;7.00;;
51636;SDS011;37713;53.254;6.460;2023-05-28T02:19:55;21.00;;;7.55;;
51636;SDS011;37713;53.254;6.460;2023-05-28T02:22:21;18.10;;;7.60;;
51636;SDS011;37713;53.254;6.460;2023-05-28T02:24:47;22.33;;;7.25;;
51636;SDS011;37713;53.254;6.460;2023-05-28T02:27:12;19.35;;;7.30;;
51636;SDS011;37713;53.254;6.460;2023-05-28T02:29:39;19.50;;;7.28;;
51636;SDS011;37713;53.254;6.460;2023-05-28T02:32:05;20.15;;;7.10;;
51636;SDS011;37713;53.254;6.460;2023-05-28T02:34:31;22.75;;;8.15;;
51636;SDS011;37713;53.254;6.460;2023-05-28T02:36:56;20.20;;;8.10;;
51636;SDS011;37713;53.254;6.460;2023-05-28T02:39:22;19.55;;;7.38;;
51636;SDS011;37713;53.254;6.460;2023-05-28T02:41:49;18.85;;;7.50;;
51636;SDS011;37713;53.254;6.460;2023-05-28T02:44:15;15.52;;;7.13;;
51636;SDS011;37713;53.254;6.460;2023-05-28T02:46:40;18.42;;;7.53;;
51636;SDS011;37713;53.254;6.460;2023-05-28T02:49:07;18.27;;;7.78;;
51636;SDS011;37713;53.254;6.460;2023-05-28T02:51:33;18.30;;;7.63;;
51636;SDS011;37713;53.254;6.460;2023-05-28T02:53:58;17.88;;;8.15;;
51636;SDS011;37713;53.254;6.460;2023-05-28T02:56:24;19.77;;;7.95;;
51636;SDS011;37713;53.254;6.460;2023-05-28T02:58:50;16.67;;;7.55;;
51636;SDS011;37713;53.254;6.460;2023-05-28T03:01:17;14.95;;;7.00;;
51636;SDS011;37713;53.254;6.460;2023-05-28T03:03:43;21.00;;;7.32;;
51636;SDS011;37713;53.254;6.460;2023-05-28T03:06:09;18.63;;;8.15;;
51636;SDS011;37713;53.254;6.460;2023-05-28T03:08:34;17.70;;;7.05;;
51636;SDS011;37713;53.254;6.460;2023-05-28T03:11:00;18.85;;;8.20;;
51636;SDS011;37713;53.254;6.460;2023-05-28T03:13:26;18.95;;;7.53;;
51636;SDS011;37713;53.254;6.460;2023-05-28T03:15:52;16.38;;;7.00;;
51636;SDS011;37713;53.254;6.460;2023-05-28T03:18:18;17.33;;;7.65;;
51636;SDS011;37713;53.254;6.460;2023-05-28T03:20:44;21.05;;;7.72;;
51636;SDS011;37713;53.254;6.460;2023-05-28T03:23:10;16.75;;;7.65;;
51636;SDS011;37713;53.254;6.460;2023-05-28T03:25:35;21.98;;;8.23;;
51636;SDS011;37713;53.254;6.460;2023-05-28T03:28:01;17.45;;;7.35;;
51636;SDS011;37713;53.254;6.460;2023-05-28T03:30:27;20.73;;;8.02;;
51636;SDS011;37713;53.254;6.460;2023-05-28T03:32:53;17.73;;;8.15;;
51636;SDS011;37713;53.254;6.460;2023-05-28T03:35:18;16.38;;;7.85;;
51636;SDS011;37713;53.254;6.460;2023-05-28T03:37:44;19.95;;;7.95;;
51636;SDS011;37713;53.254;6.460;2023-05-28T03:40:10;22.05;;;8.25;;
51636;SDS011;37713;53.254;6.460;2023-05-28T03:42:37;18.08;;;7.55;;
51636;SDS011;37713;53.254;6.460;2023-05-28T03:45:04;18.48;;;7.65;;
51636;SDS011;37713;53.254;6.460;2023-05-28T03:47:31;20.50;;;7.60;;
51636;SDS011;37713;53.254;6.460;2023-05-28T03:49:58;20.55;;;7.95;;
51636;SDS011;37713;53.254;6.460;2023-05-28T03:52:24;19.77;;;8.10;;
51636;SDS011;37713;53.254;6.460;2023-05-28T03:54:50;19.98;;;7.45;;
51636;SDS011;37713;53.254;6.460;2023-05-28T03:57:16;22.17;;;8.20;;
51636;SDS011;37713;53.254;6.460;2023-05-28T03:59:42;20.88;;;8.32;;
51636;SDS011;37713;53.254;6.460;2023-05-28T04:02:08;20.10;;;7.90;;
51636;SDS011;37713;53.254;6.460;2023-05-28T04:04:34;18.65;;;7.82;;
51636;SDS011;37713;53.254;6.460;2023-05-28T04:07:00;21.85;;;7.70;;
51636;SDS011;37713;53.254;6.460;2023-05-28T04:09:25;16.27;;;7.47;;
51636;SDS011;37713;53.254;6.460;2023-05-28T04:11:55;19.15;;;7.70;;
51636;SDS011;37713;53.254;6.460;2023-05-28T04:14:21;18.55;;;8.23;;
51636;SDS011;37713;53.254;6.460;2023-05-28T04:16:47;18.45;;;8.15;;
51636;SDS011;37713;53.254;6.460;2023-05-28T04:19:13;16.73;;;7.70;;
51636;SDS011;37713;53.254;6.460;2023-05-28T04:21:40;19.10;;;7.55;;
51636;SDS011;37713;53.254;6.460;2023-05-28T04:24:05;18.13;;;7.63;;
51636;SDS011;37713;53.254;6.460;2023-05-28T04:26:33;16.17;;;7.22;;
51636;SDS011;37713;53.254;6.460;2023-05-28T04:28:59;18.08;;;7.40;;
51636;SDS011;37713;53.254;6.460;2023-05-28T04:31:25;19.10;;;7.25;;
51636;SDS011;37713;53.254;6.460;2023-05-28T04:33:54;19.27;;;8.20;;
51636;SDS011;37713;53.254;6.460;2023-05-28T04:36:20;17.42;;;7.43;;
51636;SDS011;37713;53.254;6.460;2023-05-28T04:38:46;18.27;;;8.02;;
51636;SDS011;37713;53.254;6.460;2023-05-28T04:41:12;16.10;;;7.15;;
51636;SDS011;37713;53.254;6.460;2023-05-28T04:43:41;18.38;;;8.32;;
51636;SDS011;37713;53.254;6.460;2023-05-28T04:46:07;20.25;;;8.35;;
51636;SDS011;37713;53.254;6.460;2023-05-28T04:48:34;21.05;;;9.10;;
51636;SDS011;37713;53.254;6.460;2023-05-28T04:51:03;26.88;;;8.93;;
51636;SDS011;37713;53.254;6.460;2023-05-28T04:53:30;21.60;;;8.60;;
51636;SDS011;37713;53.254;6.460;2023-05-28T04:55:56;19.88;;;8.40;;
51636;SDS011;37713;53.254;6.460;2023-05-28T04:58:22;20.77;;;8.20;;
51636;SDS011;37713;53.254;6.460;2023-05-28T05:00:51;18.65;;;7.63;;
51636;SDS011;37713;53.254;6.460;2023-05-28T05:03:17;20.33;;;8.00;;
51636;SDS011;37713;53.254;6.460;2023-05-28T05:05:43;19.88;;;7.72;;
51636;SDS011;37713;53.254;6.460;2023-05-28T05:08:09;21.48;;;7.40;;
51636;SDS011;37713;53.254;6.460;2023-05-28T05:10:38;17.70;;;7.13;;
51636;SDS011;37713;53.254;6.460;2023-05-28T05:13:05;19.52;;;6.40;;
51636;SDS011;37713;53.254;6.460;2023-05-28T05:15:30;15.70;;;6.45;;
51636;SDS011;37713;53.254;6.460;2023-05-28T05:17:58;15.00;;;6.32;;
51636;SDS011;37713;53.254;6.460;2023-05-28T05:20:26;17.40;;;6.53;;
51636;SDS011;37713;53.254;6.460;2023-05-28T05:22:52;19.88;;;6.35;;
51636;SDS011;37713;53.254;6.460;2023-05-28T05:25:18;23.05;;;7.00;;
51636;SDS011;37713;53.254;6.460;2023-05-28T05:27:43;19.10;;;7.40;;
51636;SDS011;37713;53.254;6.460;2023-05-28T05:30:09;15.90;;;6.50;;
51636;SDS011;37713;53.254;6.460;2023-05-28T05:32:35;17.23;;;6.93;;
51636;SDS011;37713;53.254;6.460;2023-05-28T05:35:01;21.50;;;7.45;;
51636;SDS011;37713;53.254;6.460;2023-05-28T05:37:28;17.15;;;6.22;;
51636;SDS011;37713;53.254;6.460;2023-05-28T05:39:53;20.35;;;6.95;;
51636;SDS011;37713;53.254;6.460;2023-05-28T05:42:19;18.05;;;6.90;;
51636;SDS011;37713;53.254;6.460;2023-05-28T05:44:46;20.05;;;6.78;;
51636;SDS011;37713;53.254;6.460;2023-05-28T05:47:12;16.52;;;6.40;;
51636;SDS011;37713;53.254;6.460;2023-05-28T05:49:37;16.48;;;6.20;;
51636;SDS011;37713;53.254;6.460;2023-05-28T05:52:03;20.25;;;6.07;;
51636;SDS011;37713;53.254;6.460;2023-05-28T05:54:30;19.30;;;6.35;;
51636;SDS011;37713;53.254;6.460;2023-05-28T05:56:55;20.40;;;6.18;;
51636;SDS011;37713;53.254;6.460;2023-05-28T05:59:21;14.80;;;5.60;;
51636;SDS011;37713;53.254;6.460;2023-05-28T06:01:47;16.77;;;5.70;;
51636;SDS011;37713;53.254;6.460;2023-05-28T06:04:13;18.05;;;6.40;;
51636;SDS011;37713;53.254;6.460;2023-05-28T06:06:38;21.08;;;6.82;;
51636;SDS011;37713;53.254;6.460;2023-05-28T06:09:05;17.35;;;5.55;;
51636;SDS011;37713;53.254;6.460;2023-05-28T06:11:31;18.40;;;7.30;;
51636;SDS011;37713;53.254;6.460;2023-05-28T06:13:57;16.35;;;6.68;;
51636;SDS011;37713;53.254;6.460;2023-05-28T06:16:23;17.95;;;6.82;;
51636;SDS011;37713;53.254;6.460;2023-05-28T06:18:50;19.15;;;6.80;;
51636;SDS011;37713;53.254;6.460;2023-05-28T06:21:16;15.93;;;6.60;;
51636;SDS011;37713;53.254;6.460;2023-05-28T06:23:43;17.85;;;6.05;;
51636;SDS011;37713;53.254;6.460;2023-05-28T06:26:09;16.27;;;6.20;;
51636;SDS011;37713;53.254;6.460;2023-05-28T06:28:34;15.40;;;5.70;;
51636;SDS011;37713;53.254;6.460;2023-05-28T06:31:00;13.15;;;4.85;;
51636;SDS011;37713;53.254;6.460;2023-05-28T06:33:26;19.55;;;6.15;;
51636;SDS011;37713;53.254;6.460;2023-05-28T06:35:52;13.27;;;5.20;;
51636;SDS011;37713;53.254;6.460;2023-05-28T06:38:18;16.60;;;5.70;;
51636;SDS011;37713;53.254;6.460;2023-05-28T06:40:44;14.07;;;5.40;;
51636;SDS011;37713;53.254;6.460;2023-05-28T06:43:10;15.48;;;5.68;;
51636;SDS011;37713;53.254;6.460;2023-05-28T06:45:35;12.75;;;4.90;;
51636;SDS011;37713;53.254;6.460;2023-05-28T06:48:01;14.43;;;5.70;;
51636;SDS011;37713;53.254;6.460;2023-05-28T06:50:28;13.82;;;5.85;;
51636;SDS011;37713;53.254;6.460;2023-05-28T06:52:54;13.80;;;6.38;;
51636;SDS011;37713;53.254;6.460;2023-05-28T06:55:20;12.70;;;5.13;;
51636;SDS011;37713;53.254;6.460;2023-05-28T06:57:45;13.30;;;4.60;;
51636;SDS011;37713;53.254;6.460;2023-05-28T07:00:11;10.57;;;4.18;;
51636;SDS011;37713;53.254;6.460;2023-05-28T07:02:43;12.20;;;4.38;;
51636;SDS011;37713;53.254;6.460;2023-05-28T07:05:10;11.45;;;4.57;;
51636;SDS011;37713;53.254;6.460;2023-05-28T07:07:37;10.80;;;4.70;;
51636;SDS011;37713;53.254;6.460;2023-05-28T07:10:03;12.00;;;4.00;;
51636;SDS011;37713;53.254;6.460;2023-05-28T07:12:29;9.93;;;3.63;;
51636;SDS011;37713;53.254;6.460;2023-05-28T07:14:55;11.82;;;4.50;;
51636;SDS011;37713;53.254;6.460;2023-05-28T07:17:21;9.13;;;3.97;;
51636;SDS011;37713;53.254;6.460;2023-05-28T07:19:48;11.23;;;3.80;;
51636;SDS011;37713;53.254;6.460;2023-05-28T07:22:13;9.93;;;4.03;;
51636;SDS011;37713;53.254;6.460;2023-05-28T07:24:40;10.27;;;3.50;;
51636;SDS011;37713;53.254;6.460;2023-05-28T07:27:06;8.85;;;3.20;;
51636;SDS011;37713;53.254;6.460;2023-05-28T07:29:32;8.60;;;3.45;;
51636;SDS011;37713;53.254;6.460;2023-05-28T07:31:58;12.02;;;3.92;;
51636;SDS011;37713;53.254;6.460;2023-05-28T07:34:24;10.75;;;3.90;;
51636;SDS011;37713;53.254;6.460;2023-05-28T07:36:50;8.25;;;3.33;;
51636;SDS011;37713;53.254;6.460;2023-05-28T07:39:15;6.45;;;2.97;;
51636;SDS011;37713;53.254;6.460;2023-05-28T07:41:41;8.85;;;3.70;;
51636;SDS011;37713;53.254;6.460;2023-05-28T07:44:07;9.20;;;3.42;;
51636;SDS011;37713;53.254;6.460;2023-05-28T07:46:33;7.07;;;3.03;;
51636;SDS011;37713;53.254;6.460;2023-05-28T07:49:00;9.93;;;3.83;;
51636;SDS011;37713;53.254;6.460;2023-05-28T07:51:25;9.27;;;3.53;;
51636;SDS011;37713;53.254;6.460;2023-05-28T07:53:51;8.82;;;3.72;;
51636;SDS011;37713;53.254;6.460;2023-05-28T07:56:18;8.63;;;3.60;;
51636;SDS011;37713;53.254;6.460;2023-05-28T07:58:44;10.43;;;4.20;;
51636;SDS011;37713;53.254;6.460;2023-05-28T08:01:10;10.70;;;4.15;;
51636;SDS011;37713;53.254;6.460;2023-05-28T08:03:36;9.95;;;4.10;;
51636;SDS011;37713;53.254;6.460;2023-05-28T08:06:03;9.05;;;4.18;;
51636;SDS011;37713;53.254;6.460;2023-05-28T08:08:29;8.63;;;4.20;;
51636;SDS011;37713;53.254;6.460;2023-05-28T08:10:55;9.35;;;4.60;;
51636;SDS011;37713;53.254;6.460;2023-05-28T08:13:21;9.50;;;4.53;;
51636;SDS011;37713;53.254;6.460;2023-05-28T08:15:47;8.07;;;4.00;;
51636;SDS011;37713;53.254;6.460;2023-05-28T08:18:13;11.65;;;4.75;;
51636;SDS011;37713;53.254;6.460;2023-05-28T08:20:39;10.77;;;4.50;;
51636;SDS011;37713;53.254;6.460;2023-05-28T08:23:05;9.48;;;4.95;;
51636;SDS011;37713;53.254;6.460;2023-05-28T08:25:32;10.40;;;4.63;;
51636;SDS011;37713;53.254;6.460;2023-05-28T08:27:58;11.25;;;4.88;;
51636;SDS011;37713;53.254;6.460;2023-05-28T08:30:24;9.63;;;4.20;;
51636;SDS011;37713;53.254;6.460;2023-05-28T08:32:50;10.75;;;4.68;;
51636;SDS011;37713;53.254;6.460;2023-05-28T08:35:16;9.90;;;4.55;;
51636;SDS011;37713;53.254;6.460;2023-05-28T08:37:42;11.40;;;4.30;;
51636;SDS011;37713;53.254;6.460;2023-05-28T08:40:08;7.60;;;4.00;;
51636;SDS011;37713;53.254;6.460;2023-05-28T08:42:37;7.97;;;4.28;;
51636;SDS011;37713;53.254;6.460;2023-05-28T08:45:03;11.00;;;4.57;;
51636;SDS011;37713;53.254;6.460;2023-05-28T08:47:33;14.30;;;4.72;;
51636;SDS011;37713;53.254;6.460;2023-05-28T08:50:05;12.40;;;4.68;;
51636;SDS011;37713;53.254;6.460;2023-05-28T08:52:33;11.80;;;4.93;;
51636;SDS011;37713;53.254;6.460;2023-05-28T08:54:59;12.48;;;5.10;;
51636;SDS011;37713;53.254;6.460;2023-05-28T08:57:28;11.70;;;5.18;;
51636;SDS011;37713;53.254;6.460;2023-05-28T08:59:54;13.80;;;5.13;;
51636;SDS011;37713;53.254;6.460;2023-05-28T09:02:24;10.32;;;5.10;;
51636;SDS011;37713;53.254;6.460;2023-05-28T09:04:50;11.82;;;5.10;;
51636;SDS011;37713;53.254;6.460;2023-05-28T09:07:16;12.57;;;5.88;;
51636;SDS011;37713;53.254;6.460;2023-05-28T09:09:42;10.38;;;5.15;;
51636;SDS011;37713;53.254;6.460;2023-05-28T09:12:12;11.40;;;5.30;;
51636;SDS011;37713;53.254;6.460;2023-05-28T09:14:41;12.20;;;5.78;;
51636;SDS011;37713;53.254;6.460;2023-05-28T09:17:08;10.98;;;5.18;;
51636;SDS011;37713;53.254;6.460;2023-05-28T09:19:35;12.20;;;5.60;;
51636;SDS011;37713;53.254;6.460;2023-05-28T09:22:02;11.75;;;5.95;;
51636;SDS011;37713;53.254;6.460;2023-05-28T09:24:31;12.13;;;6.00;;
51636;SDS011;37713;53.254;6.460;2023-05-28T09:26:59;11.20;;;5.93;;
51636;SDS011;37713;53.254;6.460;2023-05-28T09:29:26;11.98;;;6.40;;
51636;SDS011;37713;53.254;6.460;2023-05-28T09:31:55;12.02;;;6.35;;
51636;SDS011;37713;53.254;6.460;2023-05-28T09:34:29;12.48;;;5.85;;
51636;SDS011;37713;53.254;6.460;2023-05-28T09:36:59;14.40;;;6.15;;
51636;SDS011;37713;53.254;6.460;2023-05-28T09:39:26;11.50;;;6.75;;
51636;SDS011;37713;53.254;6.460;2023-05-28T09:44:32;12.70;;;6.45;;
51636;SDS011;37713;53.254;6.460;2023-05-28T09:46:58;14.90;;;6.20;;
51636;SDS011;37713;53.254;6.460;2023-05-28T09:49:28;12.45;;;6.00;;
51636;SDS011;37713;53.254;6.460;2023-05-28T09:51:58;12.10;;;6.43;;
51636;SDS011;37713;53.254;6.460;2023-05-28T09:54:31;12.52;;;6.13;;
51636;SDS011;37713;53.254;6.460;2023-05-28T09:57:00;13.38;;;6.22;;
51636;SDS011;37713;53.254;6.460;2023-05-28T09:59:28;13.13;;;5.80;;
51636;SDS011;37713;53.254;6.460;2023-05-28T10:01:58;12.32;;;6.15;;
51636;SDS011;37713;53.254;6.460;2023-05-28T10:04:31;10.25;;;5.28;;
51636;SDS011;37713;53.254;6.460;2023-05-28T10:06:59;11.73;;;5.03;;
51636;SDS011;37713;53.254;6.460;2023-05-28T10:09:26;10.32;;;4.75;;
51636;SDS011;37713;53.254;6.460;2023-05-28T10:11:59;10.07;;;3.70;;
51636;SDS011;37713;53.254;6.460;2023-05-28T10:14:31;7.32;;;3.30;;
51636;SDS011;37713;53.254;6.460;2023-05-28T10:16:57;8.43;;;3.58;;
51636;SDS011;37713;53.254;6.460;2023-05-28T10:19:24;8.48;;;2.80;;
51636;SDS011;37713;53.254;6.460;2023-05-28T10:21:50;7.80;;;3.35;;
51636;SDS011;37713;53.254;6.460;2023-05-28T10:24:17;5.70;;;2.55;;
51636;SDS011;37713;53.254;6.460;2023-05-28T10:26:44;6.47;;;3.03;;
51636;SDS011;37713;53.254;6.460;2023-05-28T10:29:10;10.43;;;3.63;;
51636;SDS011;37713;53.254;6.460;2023-05-28T10:31:36;8.98;;;3.33;;
51636;SDS011;37713;53.254;6.460;2023-05-28T10:34:04;7.25;;;3.30;;
51636;SDS011;37713;53.254;6.460;2023-05-28T10:36:50;8.60;;;3.20;;
51636;SDS011;37713;53.254;6.460;2023-05-28T10:39:19;9.18;;;3.22;;
51636;SDS011;37713;53.254;6.460;2023-05-28T10:41:45;10.45;;;3.72;;
51636;SDS011;37713;53.254;6.460;2023-05-28T10:44:11;8.35;;;3.80;;
51636;SDS011;37713;53.254;6.460;2023-05-28T10:46:40;10.02;;;3.92;;
51636;SDS011;37713;53.254;6.460;2023-05-28T10:49:11;9.73;;;3.58;;
51636;SDS011;37713;53.254;6.460;2023-05-28T10:51:55;7.97;;;3.65;;
51636;SDS011;37713;53.254;6.460;2023-05-28T10:59:59;9.60;;;3.25;;
51636;SDS011;37713;53.254;6.460;2023-05-28T11:02:26;8.40;;;3.13;;
51636;SDS011;37713;53.254;6.460;2023-05-28T11:04:59;9.68;;;3.42;;
51636;SDS011;37713;53.254;6.460;2023-05-28T11:10:03;12.10;;;3.60;;
51636;SDS011;37713;53.254;6.460;2023-05-28T11:12:31;8.30;;;3.40;;
51636;SDS011;37713;53.254;6.460;2023-05-28T11:14:59;11.98;;;4.30;;
51636;SDS011;37713;53.254;6.460;2023-05-28T11:17:25;11.45;;;4.15;;
51636;SDS011;37713;53.254;6.460;2023-05-28T11:19:51;9.38;;;3.60;;
51636;SDS011;37713;53.254;6.460;2023-05-28T11:22:19;11.13;;;3.90;;
51636;SDS011;37713;53.254;6.460;2023-05-28T11:24:59;11.90;;;3.90;;
51636;SDS011;37713;53.254;6.460;2023-05-28T11:27:25;10.15;;;4.07;;
51636;SDS011;37713;53.254;6.460;2023-05-28T11:29:56;11.95;;;4.47;;
51636;SDS011;37713;53.254;6.460;2023-05-28T11:32:24;12.70;;;4.82;;
51636;SDS011;37713;53.254;6.460;2023-05-28T11:34:53;11.73;;;4.95;;
51636;SDS011;37713;53.254;6.460;2023-05-28T11:37:24;12.93;;;4.95;;
51636;SDS011;37713;53.254;6.460;2023-05-28T11:39:55;10.40;;;4.25;;
51636;SDS011;37713;53.254;6.460;2023-05-28T11:42:22;11.30;;;5.00;;
51636;SDS011;37713;53.254;6.460;2023-05-28T11:44:49;11.57;;;4.70;;
51636;SDS011;37713;53.254;6.460;2023-05-28T11:47:19;12.35;;;4.80;;
51636;SDS011;37713;53.254;6.460;2023-05-28T11:49:45;13.07;;;4.05;;
51636;SDS011;37713;53.254;6.460;2023-05-28T11:52:12;13.00;;;4.57;;
51636;SDS011;37713;53.254;6.460;2023-05-28T11:54:52;15.95;;;4.85;;
51636;SDS011;37713;53.254;6.460;2023-05-28T11:57:27;11.75;;;4.70;;
51636;SDS011;37713;53.254;6.460;2023-05-28T11:59:59;14.30;;;5.40;;
51636;SDS011;37713;53.254;6.460;2023-05-28T12:02:46;12.68;;;4.63;;
51636;SDS011;37713;53.254;6.460;2023-05-28T12:05:17;13.63;;;4.53;;
51636;SDS011;37713;53.254;6.460;2023-05-28T12:07:44;12.77;;;4.85;;
51636;SDS011;37713;53.254;6.460;2023-05-28T12:10:19;12.32;;;4.78;;
51636;SDS011;37713;53.254;6.460;2023-05-28T12:12:50;10.80;;;4.55;;
51636;SDS011;37713;53.254;6.460;2023-05-28T12:15:28;13.48;;;4.90;;
51636;SDS011;37713;53.254;6.460;2023-05-28T12:17:58;14.35;;;4.50;;
51636;SDS011;37713;53.254;6.460;2023-05-28T12:20:28;15.98;;;4.60;;
51636;SDS011;37713;53.254;6.460;2023-05-28T12:23:02;11.60;;;4.47;;
51636;SDS011;37713;53.254;6.460;2023-05-28T12:28:08;13.80;;;4.50;;
51636;SDS011;37713;53.254;6.460;2023-05-28T12:33:04;12.05;;;3.90;;
51636;SDS011;37713;53.254;6.460;2023-05-28T12:35:30;11.27;;;3.70;;
51636;SDS011;37713;53.254;6.460;2023-05-28T12:37:56;11.43;;;3.65;;
51636;SDS011;37713;53.254;6.460;2023-05-28T12:40:22;11.88;;;3.38;;
51636;SDS011;37713;53.254;6.460;2023-05-28T12:42:48;10.10;;;3.67;;
51636;SDS011;37713;53.254;6.460;2023-05-28T12:45:14;11.25;;;3.28;;
51636;SDS011;37713;53.254;6.460;2023-05-28T12:47:39;12.73;;;3.75;;
51636;SDS011;37713;53.254;6.460;2023-05-28T12:50:05;9.02;;;3.70;;
51636;SDS011;37713;53.254;6.460;2023-05-28T12:52:32;11.35;;;3.97;;
51636;SDS011;37713;53.254;6.460;2023-05-28T12:55:00;14.15;;;4.40;;
51636;SDS011;37713;53.254;6.460;2023-05-28T12:57:26;14.77;;;3.85;;
51636;SDS011;37713;53.254;6.460;2023-05-28T12:59:52;13.90;;;4.20;;
51636;SDS011;37713;53.254;6.460;2023-05-28T13:02:18;11.95;;;4.18;;
51636;SDS011;37713;53.254;6.460;2023-05-28T13:04:43;14.25;;;4.00;;
51636;SDS011;37713;53.254;6.460;2023-05-28T13:07:09;12.77;;;3.67;;
51636;SDS011;37713;53.254;6.460;2023-05-28T13:09:35;12.07;;;3.67;;
51636;SDS011;37713;53.254;6.460;2023-05-28T13:12:01;13.63;;;3.88;;
51636;SDS011;37713;53.254;6.460;2023-05-28T13:14:28;11.13;;;3.80;;
51636;SDS011;37713;53.254;6.460;2023-05-28T13:16:56;12.52;;;3.90;;
51636;SDS011;37713;53.254;6.460;2023-05-28T13:19:22;12.65;;;3.88;;
51636;SDS011;37713;53.254;6.460;2023-05-28T13:21:52;12.60;;;3.55;;
51636;SDS011;37713;53.254;6.460;2023-05-28T13:24:18;9.32;;;3.15;;
51636;SDS011;37713;53.254;6.460;2023-05-28T13:26:44;10.20;;;3.28;;
51636;SDS011;37713;53.254;6.460;2023-05-28T13:29:10;10.63;;;3.70;;
51636;SDS011;37713;53.254;6.460;2023-05-28T13:31:36;12.90;;;3.85;;
51636;SDS011;37713;53.254;6.460;2023-05-28T13:34:02;13.98;;;3.60;;
51636;SDS011;37713;53.254;6.460;2023-05-28T13:36:29;12.32;;;3.30;;
51636;SDS011;37713;53.254;6.460;2023-05-28T13:38:55;11.50;;;3.38;;
51636;SDS011;37713;53.254;6.460;2023-05-28T13:41:22;13.63;;;3.33;;
51636;SDS011;37713;53.254;6.460;2023-05-28T13:43:52;13.48;;;3.70;;
51636;SDS011;37713;53.254;6.460;2023-05-28T13:46:22;11.18;;;3.33;;
51636;SDS011;37713;53.254;6.460;2023-05-28T13:48:51;11.63;;;3.47;;
51636;SDS011;37713;53.254;6.460;2023-05-28T13:51:17;8.60;;;3.47;;
51636;SDS011;37713;53.254;6.460;2023-05-28T13:53:44;13.43;;;4.10;;
51636;SDS011;37713;53.254;6.460;2023-05-28T13:56:11;11.60;;;3.97;;
51636;SDS011;37713;53.254;6.460;2023-05-28T13:58:40;11.98;;;3.80;;
51636;SDS011;37713;53.254;6.460;2023-05-28T14:01:06;13.60;;;4.07;;
51636;SDS011;37713;53.254;6.460;2023-05-28T14:03:32;12.55;;;4.60;;
51636;SDS011;37713;53.254;6.460;2023-05-28T14:05:58;13.05;;;4.35;;
51636;SDS011;37713;53.254;6.460;2023-05-28T14:08:24;12.68;;;4.20;;
51636;SDS011;37713;53.254;6.460;2023-05-28T14:10:51;14.85;;;4.05;;
51636;SDS011;37713;53.254;6.460;2023-05-28T14:13:17;17.70;;;4.40;;
51636;SDS011;37713;53.254;6.460;2023-05-28T14:15:43;12.90;;;4.70;;
51636;SDS011;37713;53.254;6.460;2023-05-28T14:18:09;16.25;;;4.72;;
51636;SDS011;37713;53.254;6.460;2023-05-28T14:20:36;10.27;;;4.45;;
51636;SDS011;37713;53.254;6.460;2023-05-28T14:23:02;13.98;;;4.75;;
51636;SDS011;37713;53.254;6.460;2023-05-28T14:25:28;14.43;;;5.53;;
51636;SDS011;37713;53.254;6.460;2023-05-28T14:27:55;12.27;;;4.72;;
51636;SDS011;37713;53.254;6.460;2023-05-28T14:30:22;15.77;;;7.00;;
51636;SDS011;37713;53.254;6.460;2023-05-28T14:32:48;17.10;;;6.53;;
51636;SDS011;37713;53.254;6.460;2023-05-28T14:35:14;14.02;;;5.57;;
51636;SDS011;37713;53.254;6.460;2023-05-28T14:37:40;13.13;;;5.88;;
51636;SDS011;37713;53.254;6.460;2023-05-28T14:40:06;14.85;;;5.30;;
51636;SDS011;37713;53.254;6.460;2023-05-28T14:42:33;15.55;;;6.03;;
51636;SDS011;37713;53.254;6.460;2023-05-28T14:44:59;13.38;;;6.00;;
51636;SDS011;37713;53.254;6.460;2023-05-28T14:47:25;15.98;;;5.93;;
51636;SDS011;37713;53.254;6.460;2023-05-28T14:49:52;15.68;;;6.22;;